Time;durP1;ratioP1;P1;durP2;ratioP2;P2;SDS_P1;SDS_P2;PMS_P1;PMS_P2;Temp;Humidity;BMP_temperature;BMP_pressure;BME280_temperature;BME280_humidity;BME280_pressure;Samples;Min_cycle;Max_cycle;Signal;HPM_P1;HPM_P2
2023/12/06 00:09:35;;;;;;;44.33;21.33;;;2.80;99.90;;;;;;20757010;28;20049;-48
2023/12/06 00:19:35;;;;;;;42.90;22.10;;;2.80;99.90;;;;;;20765445;28;21040;-47
2023/12/06 00:29:36;;;;;;;44.20;22.15;;;2.80;99.90;;;;;;20744889;28;20667;-47
2023/12/06 00:39:36;;;;;;;38.00;19.08;;;2.80;99.90;;;;;;20734803;28;20045;-47
2023/12/06 00:49:37;;;;;;;36.10;19.17;;;2.90;99.90;;;;;;20730277;28;20052;-48
2023/12/06 00:59:37;;;;;;;37.33;19.75;;;2.90;99.90;;;;;;20724661;28;20459;-47
2023/12/06 01:09:38;;;;;;;37.67;19.73;;;3.00;99.90;;;;;;20723081;28;20751;-47
2023/12/06 01:19:39;;;;;;;34.53;17.60;;;3.10;99.90;;;;;;20721839;28;20395;-48
2023/12/06 01:29:39;;;;;;;28.50;15.68;;;3.00;99.90;;;;;;20719739;28;20049;-48
2023/12/06 01:39:40;;;;;;;32.90;17.33;;;3.10;99.90;;;;;;20726008;28;20152;-47
2023/12/06 01:49:40;;;;;;;35.88;16.77;;;3.10;99.90;;;;;;20723664;28;20043;-48
2023/12/06 01:59:42;;;;;;;30.90;16.65;;;3.20;99.90;;;;;;20709608;28;20120;-47
2023/12/06 02:09:44;;;;;;;28.23;14.98;;;3.20;99.90;;;;;;20722463;28;20496;-47
2023/12/06 02:19:45;;;;;;;28.20;16.30;;;3.20;99.90;;;;;;20713643;28;20137;-48
2023/12/06 02:29:45;;;;;;;29.50;16.50;;;3.10;99.90;;;;;;20724555;28;20276;-47
2023/12/06 02:39:48;;;;;;;27.90;16.52;;;3.20;99.90;;;;;;20730039;28;21411;-48
2023/12/06 02:49:48;;;;;;;30.45;16.88;;;3.20;99.90;;;;;;20728652;28;20041;-47
2023/12/06 02:59:49;;;;;;;31.05;16.42;;;3.30;99.90;;;;;;20729040;28;20652;-47
2023/12/06 03:09:50;;;;;;;26.15;14.35;;;3.40;99.90;;;;;;20726239;28;20038;-47
2023/12/06 03:19:50;;;;;;;26.63;15.02;;;3.40;99.90;;;;;;20723301;28;20050;-47
2023/12/06 03:29:51;;;;;;;27.15;14.82;;;3.40;99.90;;;;;;20726235;28;20080;-47
2023/12/06 03:39:51;;;;;;;28.83;15.27;;;3.50;99.90;;;;;;20726832;28;20037;-47
2023/12/06 03:49:52;;;;;;;26.77;14.48;;;3.50;99.90;;;;;;20724429;28;20113;-47
2023/12/06 03:59:53;;;;;;;26.52;15.38;;;3.50;99.90;;;;;;20649104;28;20046;-47
2023/12/06 04:09:54;;;;;;;22.43;14.00;;;3.70;99.90;;;;;;20653576;28;20042;-47
2023/12/06 04:19:54;;;;;;;25.47;13.87;;;3.60;99.90;;;;;;20653087;28;20469;-47
2023/12/06 04:29:55;;;;;;;28.35;15.52;;;3.70;99.90;;;;;;20642395;28;20822;-47
2023/12/06 04:39:55;;;;;;;22.38;13.30;;;3.70;99.90;;;;;;20653401;28;20091;-47
2023/12/06 04:49:56;;;;;;;19.50;12.02;;;3.80;99.90;;;;;;20651883;28;20133;-47
2023/12/06 04:59:56;;;;;;;20.88;12.65;;;3.70;99.90;;;;;;20652601;28;20034;-47
2023/12/06 05:09:57;;;;;;;25.25;14.43;;;3.70;99.90;;;;;;20654132;28;20042;-47
2023/12/06 05:19:57;;;;;;;28.90;15.35;;;3.80;99.90;;;;;;20648915;28;20046;-48
2023/12/06 05:29:58;;;;;;;22.50;14.07;;;3.80;99.90;;;;;;20654926;28;20491;-47
2023/12/06 05:39:58;;;;;;;22.88;12.48;;;3.90;99.90;;;;;;20645561;28;20451;-47
2023/12/06 05:49:59;;;;;;;27.42;14.15;;;3.80;99.90;;;;;;20645265;28;20035;-47
2023/12/06 05:59:59;;;;;;;27.73;14.30;;;4.00;99.90;;;;;;20717582;28;20510;-47
2023/12/06 06:10:00;;;;;;;24.45;13.80;;;4.00;99.90;;;;;;20710034;28;20141;-47
2023/12/06 06:20:01;;;;;;;25.55;13.80;;;4.10;99.90;;;;;;20714233;28;20057;-47
2023/12/06 06:30:01;;;;;;;20.30;12.43;;;4.10;99.90;;;;;;20725748;28;20052;-47
2023/12/06 06:40:07;;;;;;;20.65;11.25;;;4.00;99.90;;;;;;20729899;28;20072;-47
2023/12/06 06:50:08;;;;;;;25.48;13.38;;;4.00;99.90;;;;;;20725749;28;20080;-48
2023/12/06 07:00:10;;;;;;;22.45;11.93;;;4.00;99.90;;;;;;20730252;28;20037;-47
2023/12/06 07:10:10;;;;;;;23.23;13.80;;;4.00;99.90;;;;;;20735306;28;20072;-48
2023/12/06 07:20:12;;;;;;;25.98;12.45;;;4.00;99.90;;;;;;20731988;28;20049;-47
2023/12/06 07:30:18;;;;;;;21.58;11.32;;;3.90;99.90;;;;;;20740899;28;20068;-47
2023/12/06 07:40:20;;;;;;;24.73;12.87;;;3.80;99.90;;;;;;20738794;28;20905;-48
2023/12/06 07:50:21;;;;;;;35.45;17.52;;;3.70;99.90;;;;;;20743883;28;20132;-48
2023/12/06 08:00:22;;;;;;;28.75;14.88;;;3.60;99.90;;;;;;20749761;28;20061;-47
2023/12/06 08:10:23;;;;;;;21.80;11.18;;;3.60;99.90;;;;;;20744402;28;20552;-47
2023/12/06 08:20:23;;;;;;;21.43;11.07;;;3.60;99.90;;;;;;20749347;28;20049;-47
2023/12/06 08:30:24;;;;;;;22.30;11.23;;;3.50;99.90;;;;;;20746789;28;20095;-48
2023/12/06 08:40:26;;;;;;;22.73;11.75;;;3.60;99.90;;;;;;20740955;28;20078;-48
2023/12/06 08:50:26;;;;;;;25.00;11.82;;;3.60;99.90;;;;;;20747830;28;20183;-47
2023/12/06 09:00:27;;;;;;;22.20;11.32;;;3.80;99.90;;;;;;20741936;28;20079;-47
2023/12/06 09:10:28;;;;;;;27.05;12.00;;;3.80;99.90;;;;;;20743663;28;20072;-47
2023/12/06 09:20:28;;;;;;;22.38;10.63;;;4.00;99.90;;;;;;20743877;28;20038;-47
2023/12/06 09:30:29;;;;;;;22.48;11.18;;;4.10;99.90;;;;;;20747058;28;20037;-47
2023/12/06 09:40:30;;;;;;;19.40;11.02;;;4.10;99.90;;;;;;20735449;28;20041;-47
2023/12/06 09:50:31;;;;;;;21.75;10.68;;;4.10;99.90;;;;;;20733118;28;20160;-47
2023/12/06 10:00:31;;;;;;;21.10;10.98;;;4.20;99.90;;;;;;20735079;28;20132;-47
2023/12/06 10:10:32;;;;;;;16.85;10.00;;;4.30;99.90;;;;;;20736225;28;20049;-47
2023/12/06 10:20:32;;;;;;;23.67;12.52;;;4.40;99.90;;;;;;20742610;28;20566;-47
2023/12/06 10:30:34;;;;;;;21.80;13.60;;;4.40;99.90;;;;;;20738624;28;20041;-47
2023/12/06 10:40:34;;;;;;;23.45;12.70;;;4.50;99.90;;;;;;20734674;28;20049;-47
2023/12/06 10:50:35;;;;;;;16.80;9.68;;;5.00;99.90;;;;;;20736639;28;20698;-47
2023/12/06 11:00:36;;;;;;;16.65;9.65;;;5.00;99.90;;;;;;20719925;28;20216;-47
2023/12/06 11:10:55;;;;;;;15.43;9.23;;;5.10;93.10;;;;;;20732041;28;20050;-47
2023/12/06 11:20:56;;;;;;;17.33;9.90;;;5.00;91.40;;;;;;20736440;28;20033;-48
2023/12/06 11:30:56;;;;;;;16.10;9.48;;;5.10;94.40;;;;;;20731433;28;20064;-47
2023/12/06 11:40:58;;;;;;;16.27;8.38;;;5.20;98.80;;;;;;20730425;28;20111;-48
2023/12/06 11:51:00;;;;;;;12.68;7.60;;;5.20;99.90;;;;;;20729138;28;20209;-47
2023/12/06 12:01:02;;;;;;;17.40;8.73;;;5.20;99.90;;;;;;20733451;28;20723;-48
2023/12/06 12:11:03;;;;;;;16.70;8.18;;;6.20;99.90;;;;;;20728472;28;20049;-48
2023/12/06 12:21:10;;;;;;;13.75;6.80;;;7.40;96.30;;;;;;20732056;28;20064;-48
2023/12/06 12:31:26;;;;;;;10.87;7.00;;;8.00;27.40;;;;;;20742637;28;20071;-48
2023/12/06 12:41:27;;;;;;;13.32;6.28;;;8.50;3.20;;;;;;20740329;28;20050;-48
2023/12/06 12:51:33;;;;;;;9.20;5.97;;;8.50;1.00;;;;;;20739786;28;20213;-48
2023/12/06 13:01:34;;;;;;;11.95;6.85;;;8.60;1.00;;;;;;20743106;28;20472;-48
2023/12/06 13:11:35;;;;;;;10.80;5.40;;;8.30;1.00;;;;;;20744540;28;20060;-48
2023/12/06 13:21:36;;;;;;;11.23;6.78;;;7.70;1.00;;;;;;20766948;28;22405;-47
2023/12/06 13:31:37;;;;;;;9.95;6.10;;;7.20;1.00;;;;;;20747918;28;20112;-48
2023/12/06 13:41:37;;;;;;;11.20;5.57;;;6.70;5.10;;;;;;20732566;28;20140;-48
2023/12/06 13:51:38;;;;;;;8.60;4.63;;;6.20;18.40;;;;;;20735541;28;20045;-48
2023/12/06 14:01:39;;;;;;;7.90;4.38;;;5.90;28.60;;;;;;20737386;28;20048;-48
2023/12/06 14:11:40;;;;;;;9.90;5.35;;;5.60;52.80;;;;;;20734216;28;20053;-48
2023/12/06 14:21:41;;;;;;;11.33;7.13;;;5.60;70.70;;;;;;20740822;28;20900;-48
2023/12/06 14:31:41;;;;;;;10.60;5.38;;;5.50;76.30;;;;;;20731417;28;20448;-48
2023/12/06 14:41:42;;;;;;;8.57;4.68;;;5.30;89.60;;;;;;20726394;28;20030;-48
2023/12/06 14:51:42;;;;;;;9.93;5.03;;;5.10;95.50;;;;;;20723407;28;20430;-47
2023/12/06 15:01:47;;;;;;;7.30;4.97;;;5.00;99.90;;;;;;20728030;28;20797;-48
2023/12/06 15:11:48;;;;;;;7.63;5.10;;;5.00;99.90;;;;;;20723273;28;20045;-48
2023/12/06 15:21:48;;;;;;;9.80;5.70;;;4.70;99.40;;;;;;20725976;28;20479;-48
2023/12/06 15:31:49;;;;;;;12.77;8.20;;;4.50;99.90;;;;;;20725191;28;20053;-48
2023/12/06 15:41:49;;;;;;;11.48;7.40;;;4.30;99.90;;;;;;20692964;28;20646;-48
2023/12/06 15:51:50;;;;;;;15.65;8.35;;;4.10;99.90;;;;;;20713810;28;20045;-48
2023/12/06 16:01:51;;;;;;;11.95;7.43;;;3.90;99.90;;;;;;20727591;28;20418;-48
2023/12/06 16:11:52;;;;;;;14.25;7.13;;;3.70;99.90;;;;;;20736175;28;20046;-47
2023/12/06 16:21:53;;;;;;;13.27;7.70;;;3.50;99.90;;;;;;20734851;28;20100;-48
2023/12/06 16:31:53;;;;;;;14.38;8.18;;;3.30;99.90;;;;;;20738860;28;20570;-48
2023/12/06 16:41:56;;;;;;;15.40;7.70;;;3.10;99.90;;;;;;20725317;28;20141;-48
2023/12/06 16:51:56;;;;;;;15.57;8.55;;;2.90;99.90;;;;;;20709494;28;20038;-48
2023/12/06 17:01:57;;;;;;;16.27;9.90;;;2.90;99.90;;;;;;20734645;28;20095;-48
2023/12/06 17:11:57;;;;;;;29.05;16.77;;;2.90;99.90;;;;;;20743830;28;20172;-48
2023/12/06 17:21:58;;;;;;;24.67;14.55;;;2.90;99.90;;;;;;20734738;28;20060;-48
2023/12/06 17:31:59;;;;;;;17.80;10.43;;;2.80;99.90;;;;;;20723918;28;20051;-48
2023/12/06 17:41:59;;;;;;;17.65;9.00;;;2.70;99.90;;;;;;20719225;28;20133;-48
2023/12/06 17:52:00;;;;;;;14.77;8.30;;;2.60;99.90;;;;;;20722137;28;20059;-48
2023/12/06 18:02:00;;;;;;;16.55;9.02;;;2.50;99.90;;;;;;20724499;28;20838;-48
2023/12/06 18:12:01;;;;;;;14.48;8.85;;;2.50;99.90;;;;;;20729380;28;20527;-48
2023/12/06 18:22:01;;;;;;;16.67;9.80;;;2.50;99.90;;;;;;20734637;28;20082;-48
2023/12/06 18:32:03;;;;;;;16.80;9.27;;;2.40;99.90;;;;;;20703359;28;20128;-48
2023/12/06 18:42:04;;;;;;;15.80;9.65;;;2.30;99.90;;;;;;20686079;28;20566;-48
2023/12/06 18:52:05;;;;;;;20.08;11.15;;;2.20;99.90;;;;;;20691426;28;20522;-48
2023/12/06 19:02:05;;;;;;;20.92;11.63;;;2.10;99.90;;;;;;20692164;28;20156;-49
2023/12/06 19:12:06;;;;;;;19.45;11.35;;;2.00;99.90;;;;;;20700653;28;20133;-48
2023/12/06 19:22:07;;;;;;;15.50;10.00;;;2.00;99.90;;;;;;20708565;28;20057;-48
2023/12/06 19:32:08;;;;;;;16.45;10.35;;;1.80;99.90;;;;;;20693871;28;20499;-48
2023/12/06 19:42:09;;;;;;;17.48;10.45;;;1.80;99.90;;;;;;20719971;28;20053;-48
2023/12/06 19:52:09;;;;;;;18.63;11.55;;;1.70;99.90;;;;;;20713709;28;20141;-48
2023/12/06 20:02:10;;;;;;;22.45;12.10;;;1.60;99.90;;;;;;20709674;28;20481;-48
2023/12/06 20:12:10;;;;;;;17.65;11.50;;;1.50;99.90;;;;;;20712119;28;20045;-48
2023/12/06 20:22:11;;;;;;;23.17;12.73;;;1.50;99.90;;;;;;20718923;28;20034;-48
2023/12/06 20:32:12;;;;;;;25.00;14.80;;;1.40;99.90;;;;;;20708414;28;20080;-48
2023/12/06 20:42:13;;;;;;;24.40;14.27;;;1.30;99.90;;;;;;20704304;28;20137;-48
2023/12/06 20:52:14;;;;;;;27.40;14.43;;;1.30;99.90;;;;;;20704982;28;20554;-48
2023/12/06 21:02:15;;;;;;;29.42;16.20;;;1.30;99.90;;;;;;20698430;28;20066;-48
2023/12/06 21:12:15;;;;;;;25.10;14.73;;;1.30;99.90;;;;;;20703230;28;20041;-48
2023/12/06 21:22:16;;;;;;;23.85;14.32;;;1.20;99.90;;;;;;20696316;28;20463;-48
2023/12/06 21:32:16;;;;;;;23.77;13.75;;;1.10;99.90;;;;;;20617164;28;20132;-48
2023/12/06 21:42:17;;;;;;;25.77;13.48;;;1.00;99.90;;;;;;20708392;28;20425;-48
2023/12/06 21:52:17;;;;;;;33.63;17.40;;;1.00;99.90;;;;;;20712818;28;20578;-48
2023/12/06 22:02:18;;;;;;;30.10;15.65;;;1.00;99.90;;;;;;20713624;28;20029;-48
2023/12/06 22:12:18;;;;;;;25.83;14.68;;;0.90;99.90;;;;;;20713333;28;20042;-48
2023/12/06 22:22:20;;;;;;;24.60;14.40;;;0.90;99.90;;;;;;20713624;28;20547;-48
2023/12/06 22:32:21;;;;;;;31.75;14.80;;;0.90;99.90;;;;;;20712585;28;20387;-48
2023/12/06 22:42:21;;;;;;;26.02;13.68;;;0.90;99.90;;;;;;20701783;28;20053;-48
2023/12/06 22:52:22;;;;;;;20.85;12.75;;;0.90;99.90;;;;;;20720034;28;20052;-48
2023/12/06 23:02:22;;;;;;;19.98;12.07;;;1.00;99.90;;;;;;20720832;28;20034;-48
2023/12/06 23:12:23;;;;;;;22.95;12.05;;;1.00;99.90;;;;;;20714812;28;20137;-48
2023/12/06 23:22:23;;;;;;;17.73;10.82;;;1.00;99.90;;;;;;20709216;28;20141;-48
2023/12/06 23:32:24;;;;;;;18.30;9.60;;;1.10;99.90;;;;;;20705695;28;20634;-48
2023/12/06 23:42:27;;;;;;;17.40;9.70;;;1.00;99.90;;;;;;20716886;28;20373;-48
2023/12/06 23:52:27;;;;;;;17.80;9.80;;;1.00;99.90;;;;;;20715939;28;20491;-49
